Time;durP1;ratioP1;P1;durP2;ratioP2;P2;SDS_P1;SDS_P2;PMS_P1;PMS_P2;Temp;Humidity;BMP_temperature;BMP_pressure;BME280_temperature;BME280_humidity;BME280_pressure;Samples;Min_cycle;Max_cycle;Signal;HPM_P1;HPM_P2
2023/10/14 00:01:27;;;;;;;10.83;6.67;;;;;;;15.99;100.00;99419.28;4969113;28;20592;-70
2023/10/14 00:03:56;;;;;;;11.40;5.83;;;;;;;15.89;100.00;99413.31;4968026;28;20309;-70
2023/10/14 00:06:24;;;;;;;10.07;6.30;;;;;;;15.93;100.00;99416.78;4967570;28;20236;-70
2023/10/14 00:11:24;;;;;;;10.57;6.33;;;;;;;15.86;100.00;99413.38;4968069;28;20201;-70
2023/10/14 00:13:52;;;;;;;12.20;6.30;;;;;;;15.82;100.00;99416.16;4975503;28;20743;-69
2023/10/14 00:16:35;;;;;;;13.50;6.10;;;;;;;15.74;100.00;99413.69;4971127;28;20225;-70
2023/10/14 00:19:09;;;;;;;13.93;5.97;;;;;;;15.75;100.00;99411.88;4967330;28;20212;-70
2023/10/14 00:21:36;;;;;;;8.77;5.70;;;;;;;15.64;100.00;99410.34;4971025;28;20222;-70
2023/10/14 00:24:06;;;;;;;11.70;5.73;;;;;;;15.63;100.00;99407.72;4970897;28;20221;-70
2023/10/14 00:26:33;;;;;;;9.83;5.80;;;;;;;15.74;100.00;99418.13;4964864;28;20237;-70
2023/10/14 00:31:43;;;;;;;10.90;5.50;;;;;;;16.10;100.00;99409.25;4971049;28;20209;-70
2023/10/14 00:34:10;;;;;;;11.20;5.70;;;;;;;16.35;100.00;99408.59;4970895;28;20297;-70
2023/10/14 00:36:37;;;;;;;11.27;5.93;;;;;;;16.65;100.00;99404.25;4968465;28;20251;-70
2023/10/14 00:39:14;;;;;;;16.50;5.90;;;;;;;16.90;100.00;99410.75;4970336;28;20201;-70
2023/10/14 00:41:44;;;;;;;8.23;5.03;;;;;;;17.10;100.00;99405.69;4970553;28;20212;-70
2023/10/14 00:44:11;;;;;;;13.53;5.70;;;;;;;17.37;100.00;99400.44;4970620;28;20227;-70
2023/10/14 00:46:42;;;;;;;13.43;5.03;;;;;;;17.70;100.00;99401.25;4965820;28;20738;-70
2023/10/14 00:49:12;;;;;;;11.27;4.73;;;;;;;17.95;100.00;99377.22;4969822;28;20284;-70
2023/10/14 00:51:43;;;;;;;9.23;4.83;;;;;;;18.36;100.00;99376.69;4970453;28;20299;-69
2023/10/14 00:54:12;;;;;;;10.87;4.63;;;;;;;18.77;100.00;99379.75;4968607;28;20198;-70
2023/10/14 00:56:42;;;;;;;12.00;4.53;;;;;;;19.00;100.00;99377.13;4968739;28;20721;-70
2023/10/14 00:59:09;;;;;;;6.70;3.80;;;;;;;19.20;96.40;99368.31;4970419;28;20289;-69
2023/10/14 01:04:22;;;;;;;9.18;4.70;;;;;;;19.35;94.33;99377.63;4966178;28;20253;-69
2023/10/14 01:09:36;;;;;;;8.00;4.32;;;;;;;19.44;92.04;99379.94;4967372;28;20209;-69
2023/10/14 01:12:16;;;;;;;11.05;4.32;;;;;;;19.36;94.00;99374.00;4972313;28;20204;-70
2023/10/14 01:14:44;;;;;;;11.98;4.15;;;;;;;19.35;93.45;99372.25;4964686;28;20198;-70
2023/10/14 01:17:21;;;;;;;8.82;4.30;;;;;;;19.22;94.74;99368.28;4966064;28;20205;-70
2023/10/14 01:19:48;;;;;;;10.30;4.60;;;;;;;19.11;96.30;99363.31;4967667;28;20209;-70
2023/10/14 01:22:14;;;;;;;13.05;4.07;;;;;;;19.06;96.93;99376.91;4970472;28;20225;-70
2023/10/14 01:24:41;;;;;;;9.50;3.90;;;;;;;19.01;96.76;99354.72;4956972;28;20221;-70
2023/10/14 01:27:10;;;;;;;7.07;4.18;;;;;;;18.90;98.41;99338.16;4966207;28;20198;-70
2023/10/14 01:29:41;;;;;;;10.48;4.82;;;;;;;19.07;95.17;99353.63;4965872;28;20233;-70
2023/10/14 01:32:23;;;;;;;15.20;4.25;;;;;;;19.15;94.32;99350.63;4962689;28;20206;-70
2023/10/14 01:34:55;;;;;;;8.50;4.22;;;;;;;19.31;91.07;99359.88;4974263;28;20233;-69
2023/10/14 01:37:26;;;;;;;9.95;4.35;;;;;;;19.41;89.94;99366.63;4970454;28;20256;-70
2023/10/14 01:39:57;;;;;;;10.07;4.03;;;;;;;19.66;87.25;99371.97;4966686;28;20817;-70
2023/10/14 01:42:23;;;;;;;12.43;5.00;;;;;;;19.78;86.14;99358.03;4970200;28;20209;-70
2023/10/14 01:44:53;;;;;;;8.57;4.43;;;;;;;19.80;85.76;99360.66;4969954;28;20240;-70
2023/10/14 01:47:21;;;;;;;11.25;5.18;;;;;;;19.75;87.14;99354.59;4970104;28;20206;-70
2023/10/14 01:49:47;;;;;;;10.70;4.55;;;;;;;19.79;86.10;99362.47;4967441;28;20202;-70
2023/10/14 01:52:19;;;;;;;10.45;4.35;;;;;;;19.88;84.71;99358.50;4969062;28;20650;-70
2023/10/14 01:54:47;;;;;;;11.95;4.45;;;;;;;19.92;85.27;99368.19;4969838;28;20198;-70
2023/10/14 01:57:17;;;;;;;9.02;4.95;;;;;;;19.94;84.73;99377.06;4968977;28;20256;-70
2023/10/14 01:59:49;;;;;;;11.23;5.05;;;;;;;19.98;84.28;99373.31;4967877;28;20210;-70
2023/10/14 02:02:20;;;;;;;10.38;4.72;;;;;;;19.93;85.29;99364.56;4971492;28;20233;-70
2023/10/14 02:04:47;;;;;;;12.52;4.60;;;;;;;19.90;86.07;99367.38;4973233;28;20787;-70
2023/10/14 02:07:21;;;;;;;13.82;4.82;;;;;;;19.99;84.78;99357.13;4970000;28;20288;-69
2023/10/14 02:09:55;;;;;;;12.38;5.03;;;;;;;20.03;83.69;99358.78;4973535;28;20212;-70
2023/10/14 02:12:24;;;;;;;9.48;4.53;;;;;;;20.26;80.47;99343.47;4974375;28;20217;-71
2023/10/14 02:14:59;;;;;;;10.95;4.80;;;;;;;20.47;79.23;99361.41;4971081;28;20226;-70
2023/10/14 02:17:26;;;;;;;8.38;4.70;;;;;;;20.56;78.53;99365.50;4973496;28;20268;-70
2023/10/14 02:19:52;;;;;;;11.02;4.72;;;;;;;20.49;78.67;99355.97;4973555;28;20308;-70
2023/10/14 02:22:23;;;;;;;11.20;5.03;;;;;;;20.55;77.61;99353.88;4972750;28;20231;-71
2023/10/14 02:24:49;;;;;;;13.52;4.78;;;;;;;20.40;79.15;99343.78;4971746;28;20230;-70
2023/10/14 02:27:16;;;;;;;14.68;5.03;;;;;;;20.55;76.92;99323.41;4973371;28;20668;-70
2023/10/14 02:29:47;;;;;;;10.20;4.80;;;;;;;20.56;77.60;99352.06;4973263;28;20623;-70
2023/10/14 02:32:13;;;;;;;9.45;4.75;;;;;;;20.66;75.50;99345.31;4968354;28;20205;-70
2023/10/14 02:34:43;;;;;;;14.55;4.72;;;;;;;20.68;76.63;99350.63;4973365;28;20206;-71
2023/10/14 02:37:13;;;;;;;13.13;4.85;;;;;;;20.59;77.96;99354.63;4972950;28;20568;-71
2023/10/14 02:39:43;;;;;;;10.38;5.55;;;;;;;20.53;78.28;99355.78;4972935;28;20255;-70
2023/10/14 02:42:09;;;;;;;12.27;5.18;;;;;;;20.45;79.90;99355.22;4971768;28;20214;-71
2023/10/14 02:44:48;;;;;;;13.32;5.22;;;;;;;20.41;81.18;99358.09;4972580;28;20221;-70
2023/10/14 02:47:14;;;;;;;15.35;5.47;;;;;;;20.34;81.57;99347.56;4971460;28;20205;-70
2023/10/14 02:49:41;;;;;;;9.25;5.10;;;;;;;20.37;80.39;99349.25;4969127;28;20253;-71
2023/10/14 02:52:12;;;;;;;11.95;4.97;;;;;;;20.43;79.53;99342.78;4972666;28;20276;-70
2023/10/14 02:54:45;;;;;;;16.02;4.95;;;;;;;20.45;79.17;99357.06;4972665;28;20252;-70
2023/10/14 02:57:13;;;;;;;10.75;4.63;;;;;;;20.40;80.10;99359.91;4970631;28;20210;-70
2023/10/14 03:02:14;;;;;;;14.98;4.40;;;;;;;20.43;78.26;99357.13;4972405;28;20197;-70
2023/10/14 03:07:25;;;;;;;8.50;3.92;;;;;;;20.56;74.30;99366.38;4972417;28;20775;-70
2023/10/14 03:09:52;;;;;;;8.55;4.15;;;;;;;20.46;75.08;99381.19;4972291;28;20207;-69
2023/10/14 03:12:19;;;;;;;6.47;3.20;;;;;;;20.48;72.79;99383.81;4975498;28;20316;-70
2023/10/14 03:14:50;;;;;;;7.18;2.92;;;;;;;20.40;73.31;99373.34;4967449;28;20308;-69
2023/10/14 03:17:40;;;;;;;5.93;2.22;;;;;;;20.24;74.35;99374.94;4972356;28;20208;-69
2023/10/14 03:22:57;;;;;;;2.90;1.50;;;;;;;20.09;73.63;99354.94;4971292;28;20275;-69
2023/10/14 03:25:24;;;;;;;10.60;1.50;;;;;;;20.10;73.72;99367.44;4971851;28;20225;-70
2023/10/14 03:27:57;;;;;;;2.08;1.35;;;;;;;20.06;74.15;99364.97;4972322;28;20236;-69
2023/10/14 03:30:24;;;;;;;3.90;1.13;;;;;;;20.00;74.38;99372.31;4971794;28;20214;-69
2023/10/14 03:32:50;;;;;;;2.35;1.15;;;;;;;20.06;74.12;99371.22;4967424;28;20237;-69
2023/10/14 03:35:21;;;;;;;3.92;1.55;;;;;;;20.11;74.36;99373.69;4972103;28;20220;-70
2023/10/14 03:37:58;;;;;;;3.00;1.40;;;;;;;20.10;74.29;99375.53;4971994;28;20578;-69
2023/10/14 03:43:14;;;;;;;3.75;1.08;;;;;;;20.05;74.98;99376.66;4971832;28;20201;-69
2023/10/14 03:46:04;;;;;;;1.30;1.00;;;;;;;20.06;75.20;99379.28;4972472;28;20225;-69
2023/10/14 03:48:34;;;;;;;3.08;1.30;;;;;;;20.01;76.18;99370.50;4970670;28;20677;-70
2023/10/14 03:51:05;;;;;;;4.07;1.10;;;;;;;19.98;76.67;99371.50;4970531;28;20552;-69
2023/10/14 03:53:32;;;;;;;4.72;1.10;;;;;;;19.98;77.23;99366.13;4966872;28;20563;-69
2023/10/14 03:56:00;;;;;;;3.45;1.00;;;;;;;20.02;76.60;99372.28;4968972;28;20252;-69
2023/10/14 03:58:36;;;;;;;2.17;1.10;;;;;;;19.93;77.91;99359.19;4971691;28;20230;-70
2023/10/14 04:01:03;;;;;;;2.65;1.38;;;;;;;19.85;78.90;99354.13;4971413;28;20201;-71
2023/10/14 04:03:39;;;;;;;1.55;1.00;;;;;;;19.86;78.45;99355.00;4970729;28;20632;-70
2023/10/14 04:06:15;;;;;;;2.63;0.85;;;;;;;19.84;78.93;99360.44;4971265;28;20259;-71
2023/10/14 04:08:51;;;;;;;3.28;1.13;;;;;;;19.82;79.55;99369.50;4971785;28;20227;-70
2023/10/14 04:11:25;;;;;;;3.88;1.10;;;;;;;19.82;78.78;99372.19;4970910;28;20673;-70
2023/10/14 04:14:00;;;;;;;1.95;1.00;;;;;;;19.77;79.83;99363.47;4969587;28;20208;-70
2023/10/14 04:16:27;;;;;;;2.67;0.80;;;;;;;19.80;79.82;99374.06;4970644;28;20221;-70
2023/10/14 04:19:06;;;;;;;4.40;0.93;;;;;;;19.79;81.19;99375.00;4971289;28;20276;-69
2023/10/14 04:21:36;;;;;;;2.80;0.80;;;;;;;19.79;80.96;99375.88;4967330;28;20560;-69
2023/10/14 04:24:19;;;;;;;2.17;0.70;;;;;;;19.80;81.05;99374.94;4967975;28;20745;-71
2023/10/14 04:26:48;;;;;;;3.10;0.90;;;;;;;19.73;82.55;99370.78;4969887;28;20272;-70
2023/10/14 04:29:34;;;;;;;2.25;0.75;;;;;;;19.73;82.72;99377.94;4971020;28;20206;-70
2023/10/14 04:32:13;;;;;;;2.90;0.80;;;;;;;19.67;84.40;99376.41;4968613;28;20287;-70
2023/10/14 04:34:42;;;;;;;3.58;0.80;;;;;;;19.60;85.70;99375.72;4966757;28;20208;-70
2023/10/14 04:37:09;;;;;;;1.73;0.50;;;;;;;19.62;84.98;99383.75;4970575;28;20292;-70
2023/10/14 04:39:42;;;;;;;3.30;0.80;;;;;;;19.56;86.18;99383.97;4967967;28;20213;-69
2023/10/14 04:44:59;;;;;;;2.92;0.63;;;;;;;19.50;87.25;99384.19;4970984;28;20713;-70
2023/10/14 04:47:38;;;;;;;4.65;0.98;;;;;;;19.45;89.57;99389.75;4965278;28;20201;-69
2023/10/14 04:50:14;;;;;;;4.55;0.90;;;;;;;19.38;91.70;99391.78;4971062;28;20288;-70
2023/10/14 04:52:42;;;;;;;3.33;0.93;;;;;;;19.24;96.17;99393.25;4966707;28;20209;-70
2023/10/14 04:55:35;;;;;;;0.85;0.63;;;;;;;19.16;98.77;99415.00;4969803;28;20225;-69
2023/10/14 04:58:23;;;;;;;1.92;0.65;;;;;;;19.14;100.00;99429.41;4967738;28;20732;-70
2023/10/14 05:00:45;;;;;;;1.55;0.80;;;;;;;19.12;100.00;99436.66;4966458;28;20309;-70
2023/10/14 05:03:14;;;;;;;1.83;0.95;;;;;;;19.08;100.00;99433.19;4970748;28;20202;-70
2023/10/14 05:06:14;;;;;;;1.95;0.75;;;;;;;19.04;100.00;99439.63;4965884;28;20608;-70
2023/10/14 05:08:44;;;;;;;2.60;1.10;;;;;;;18.94;100.00;99441.75;4965858;28;20205;-69
2023/10/14 05:11:18;;;;;;;0.87;0.57;;;;;;;18.87;100.00;99461.69;4970305;28;20217;-71
2023/10/14 05:13:53;;;;;;;1.97;0.60;;;;;;;18.75;100.00;99464.78;4966454;28;20229;-70
2023/10/14 05:16:22;;;;;;;2.10;0.73;;;;;;;18.64;100.00;99469.66;4968575;28;20217;-70
2023/10/14 05:18:59;;;;;;;4.10;0.63;;;;;;;18.54;100.00;99495.00;4970295;28;20261;-70
2023/10/14 05:21:36;;;;;;;1.57;0.73;;;;;;;18.41;100.00;99537.41;4964033;28;20232;-70
2023/10/14 05:24:06;;;;;;;1.60;0.40;;;;;;;17.73;100.00;99577.91;4970611;28;20229;-69
2023/10/14 05:26:36;;;;;;;0.60;0.30;;;;;;;15.85;100.00;99590.53;4964531;28;20229;-69
2023/10/14 05:29:11;;;;;;;6.47;0.67;;;;;;;15.11;100.00;99597.25;4964401;28;20588;-70
2023/10/14 05:31:37;;;;;;;0.97;0.40;;;;;;;14.65;100.00;99606.03;4964897;28;20562;-71
2023/10/14 05:34:05;;;;;;;2.23;0.50;;;;;;;14.35;100.00;99607.31;4970743;28;20206;-72
2023/10/14 05:36:34;;;;;;;0.47;0.30;;;;;;;14.22;100.00;99603.97;4971232;28;20313;-70
2023/10/14 05:39:02;;;;;;;0.40;0.40;;;;;;;14.14;100.00;99616.53;4973120;28;20564;-72
2023/10/14 05:41:30;;;;;;;1.10;0.40;;;;;;;14.06;100.00;99623.72;4973973;28;20213;-71
2023/10/14 05:43:56;;;;;;;0.40;0.40;;;;;;;14.04;100.00;99636.19;4974246;28;20320;-69
2023/10/14 05:46:23;;;;;;;1.77;0.40;;;;;;;13.95;100.00;99636.28;4969655;28;20231;-71
2023/10/14 05:48:53;;;;;;;0.60;0.40;;;;;;;13.88;100.00;99647.91;4974376;28;20209;-72
2023/10/14 05:51:20;;;;;;;0.67;0.40;;;;;;;13.88;100.00;99656.78;4973712;28;20253;-70
2023/10/14 05:53:46;;;;;;;0.30;0.30;;;;;;;13.95;100.00;99678.88;4974321;28;20305;-73
2023/10/14 05:56:15;;;;;;;0.67;0.40;;;;;;;13.87;100.00;99673.63;4972494;28;20308;-72
2023/10/14 05:58:42;;;;;;;0.30;0.30;;;;;;;13.84;100.00;99689.66;4975811;28;20233;-71
2023/10/14 06:01:10;;;;;;;0.50;0.50;;;;;;;13.85;100.00;99706.50;4973432;28;20205;-71
2023/10/14 06:03:37;;;;;;;0.40;0.40;;;;;;;13.87;100.00;99710.03;4973291;28;20464;-71
2023/10/14 06:06:09;;;;;;;0.90;0.50;;;;;;;13.86;100.00;99721.56;4973698;28;20218;-71
2023/10/14 06:08:37;;;;;;;0.63;0.40;;;;;;;13.87;100.00;99741.97;4967585;28;20211;-69
2023/10/14 06:11:05;;;;;;;0.47;0.47;;;;;;;13.95;100.00;99756.06;4972135;28;20205;-69
2023/10/14 06:13:34;;;;;;;0.83;0.40;;;;;;;13.97;100.00;99779.13;4968646;28;20208;-70
2023/10/14 06:16:10;;;;;;;1.10;0.50;;;;;;;13.93;100.00;99792.47;4973587;28;20244;-71
2023/10/14 06:18:38;;;;;;;0.50;0.50;;;;;;;13.89;100.00;99796.06;4967571;28;20208;-73
2023/10/14 06:21:06;;;;;;;0.43;0.43;;;;;;;13.86;100.00;99806.75;4970316;28;20203;-71
2023/10/14 06:23:33;;;;;;;0.50;0.50;;;;;;;13.86;100.00;99815.63;4973062;28;20202;-73
2023/10/14 06:25:59;;;;;;;1.93;0.60;;;;;;;13.79;100.00;99813.91;4973352;28;20221;-71
2023/10/14 06:28:27;;;;;;;0.97;0.60;;;;;;;13.85;100.00;99812.97;4973117;28;20236;-72
2023/10/14 06:30:54;;;;;;;0.50;0.50;;;;;;;13.78;100.00;99817.47;4968635;28;20233;-73
2023/10/14 06:33:26;;;;;;;0.73;0.60;;;;;;;13.74;100.00;99818.38;4973375;28;20304;-71
2023/10/14 06:35:53;;;;;;;0.70;0.70;;;;;;;13.73;100.00;99827.28;4972996;28;20258;-70
2023/10/14 06:38:21;;;;;;;0.50;0.50;;;;;;;13.72;100.00;99830.84;4966141;28;20293;-71
2023/10/14 06:40:55;;;;;;;0.57;0.50;;;;;;;13.75;100.00;99825.47;4973170;28;20243;-74
2023/10/14 06:43:22;;;;;;;0.97;0.50;;;;;;;13.67;100.00;99833.53;4972931;28;20202;-79
2023/10/14 06:45:52;;;;;;;0.40;0.40;;;;;;;13.64;100.00;99840.66;4972919;28;20232;-78
2023/10/14 06:48:19;;;;;;;0.40;0.40;;;;;;;13.62;100.00;99840.66;4965351;28;20276;-77
2023/10/14 06:50:49;;;;;;;0.50;0.50;;;;;;;13.61;100.00;99856.63;4972962;28;20206;-79
2023/10/14 06:53:17;;;;;;;0.80;0.77;;;;;;;13.63;100.00;99870.81;4972944;28;20206;-77
2023/10/14 06:55:44;;;;;;;0.53;0.50;;;;;;;13.71;100.00;99871.66;4971710;28;20255;-80
2023/10/14 06:58:18;;;;;;;0.70;0.60;;;;;;;13.88;100.00;99885.69;4972180;28;20202;-78
2023/10/14 07:00:45;;;;;;;0.87;0.70;;;;;;;14.04;100.00;99897.13;4972705;28;20243;-78
2023/10/14 07:03:15;;;;;;;0.67;0.40;;;;;;;13.98;100.00;99905.13;4971417;28;20208;-81
2023/10/14 07:05:43;;;;;;;2.27;0.70;;;;;;;13.65;100.00;99922.25;4972622;28;20224;-78
2023/10/14 07:08:11;;;;;;;3.63;1.20;;;;;;;13.25;100.00;99964.16;4972444;28;20201;-79
2023/10/14 07:10:38;;;;;;;1.20;0.60;;;;;;;13.02;100.00;99949.13;4963376;28;20688;-77
2023/10/14 07:13:05;;;;;;;2.80;0.80;;;;;;;13.02;100.00;99965.06;4972184;28;20662;-73
2023/10/14 07:15:38;;;;;;;1.67;0.70;;;;;;;13.12;100.00;99973.88;4970795;28;20221;-69
2023/10/14 07:18:05;;;;;;;1.33;0.83;;;;;;;13.20;100.00;99980.09;4971951;28;20583;-70
2023/10/14 07:20:32;;;;;;;4.13;1.50;;;;;;;13.20;100.00;99977.44;4967995;28;20208;-70
2023/10/14 07:23:00;;;;;;;4.57;1.07;;;;;;;13.15;100.00;99977.41;4972712;28;20278;-69
2023/10/14 07:25:35;;;;;;;1.93;1.10;;;;;;;13.03;100.00;99985.44;4971627;28;20224;-70
2023/10/14 07:28:07;;;;;;;3.37;1.47;;;;;;;13.01;100.00;99995.19;4971896;28;20227;-70
2023/10/14 07:30:34;;;;;;;2.97;1.20;;;;;;;12.90;100.00;99988.16;4972080;28;20224;-77
2023/10/14 07:33:05;;;;;;;4.63;1.50;;;;;;;12.78;100.00;99989.03;4972316;28;20204;-69
2023/10/14 07:35:32;;;;;;;2.30;1.03;;;;;;;12.68;100.00;99990.84;4971865;28;20248;-70
2023/10/14 07:37:58;;;;;;;6.80;1.60;;;;;;;12.68;100.00;99997.91;4968548;28;20227;-70
2023/10/14 07:40:31;;;;;;;4.90;1.20;;;;;;;12.77;100.00;100006.75;4971386;28;20212;-69
2023/10/14 07:43:05;;;;;;;2.07;1.23;;;;;;;12.85;100.00;100012.09;4972200;28;20209;-69
2023/10/14 07:45:34;;;;;;;3.33;1.30;;;;;;;12.91;100.00;100008.53;4965032;28;20229;-69
2023/10/14 07:48:08;;;;;;;6.60;1.30;;;;;;;12.88;100.00;100009.41;4970525;28;20208;-70
2023/10/14 07:50:36;;;;;;;2.63;1.17;;;;;;;12.93;100.00;100014.72;4971642;28;20204;-69
2023/10/14 07:53:13;;;;;;;3.27;1.47;;;;;;;12.93;100.00;100012.94;4972523;28;20211;-70
2023/10/14 07:55:47;;;;;;;2.63;1.30;;;;;;;13.00;100.00;100020.00;4957790;28;20229;-70
2023/10/14 07:58:15;;;;;;;4.37;1.70;;;;;;;12.97;100.00;100025.34;4971198;28;20618;-69
2023/10/14 08:00:50;;;;;;;5.57;1.60;;;;;;;12.99;100.00;100023.56;4971977;28;20205;-69
2023/10/14 08:03:20;;;;;;;4.00;1.50;;;;;;;12.90;100.00;100031.56;4971361;28;20595;-69
2023/10/14 08:05:54;;;;;;;8.13;1.70;;;;;;;12.96;100.00;100026.22;4969627;28;20238;-71
2023/10/14 08:08:22;;;;;;;4.27;1.43;;;;;;;13.11;100.00;100026.19;4963836;28;20208;-69
2023/10/14 08:10:50;;;;;;;5.10;1.60;;;;;;;13.12;100.00;100043.91;4971450;28;20205;-71
2023/10/14 08:13:23;;;;;;;4.93;1.37;;;;;;;13.24;100.00;100036.84;4971048;28;20665;-71
2023/10/14 08:15:51;;;;;;;6.10;1.63;;;;;;;13.14;100.00;100054.53;4968074;28;20691;-71
2023/10/14 08:18:23;;;;;;;2.67;1.60;;;;;;;13.00;100.00;100064.31;4970833;28;20215;-71
2023/10/14 08:20:54;;;;;;;6.83;1.80;;;;;;;13.00;100.00;100054.56;4971175;28;20224;-71
2023/10/14 08:23:22;;;;;;;5.27;1.70;;;;;;;12.95;100.00;100066.09;4965733;28;20219;-72
2023/10/14 08:25:53;;;;;;;5.83;1.70;;;;;;;12.97;100.00;100067.88;4971082;28;20386;-71
2023/10/14 08:28:21;;;;;;;8.10;1.97;;;;;;;12.95;100.00;100066.09;4970648;28;20240;-70
2023/10/14 08:30:50;;;;;;;6.73;1.80;;;;;;;12.94;100.00;100088.25;4971296;28;20217;-70
2023/10/14 08:33:19;;;;;;;6.57;1.90;;;;;;;12.97;100.00;100081.16;4968886;28;20216;-71
2023/10/14 08:35:48;;;;;;;5.97;1.70;;;;;;;12.90;100.00;100089.16;4970956;28;20718;-71
2023/10/14 08:38:19;;;;;;;5.03;1.77;;;;;;;12.96;100.00;100090.03;4970564;28;20199;-71
2023/10/14 08:40:49;;;;;;;7.00;2.00;;;;;;;12.96;100.00;100090.03;4967925;28;20212;-71
2023/10/14 08:43:20;;;;;;;4.67;1.33;;;;;;;13.07;100.00;100096.19;4968145;28;20204;-71
2023/10/14 08:45:47;;;;;;;3.63;2.20;;;;;;;13.16;100.00;100098.84;4970714;28;20223;-70
2023/10/14 08:48:19;;;;;;;6.47;1.60;;;;;;;13.14;100.00;100100.63;4970386;28;20201;-71
2023/10/14 08:50:47;;;;;;;2.93;1.70;;;;;;;13.27;100.00;100103.31;4965788;28;20211;-71
2023/10/14 08:53:13;;;;;;;6.47;1.70;;;;;;;13.49;100.00;100105.00;4970760;28;20205;-71
2023/10/14 08:55:40;;;;;;;6.23;1.57;;;;;;;13.58;100.00;100096.09;4961660;28;20232;-71
2023/10/14 08:58:13;;;;;;;6.57;1.80;;;;;;;13.73;100.00;100102.28;4963825;28;20585;-79
2023/10/14 09:00:42;;;;;;;5.47;2.10;;;;;;;13.93;100.00;100111.94;4963048;28;20198;-75
2023/10/14 09:03:10;;;;;;;5.37;1.73;;;;;;;13.87;100.00;100114.63;4970985;28;20207;-78
2023/10/14 09:05:40;;;;;;;5.80;1.60;;;;;;;13.77;98.88;100112.00;4970630;28;20274;-77
2023/10/14 09:08:19;;;;;;;3.27;1.47;;;;;;;13.75;95.05;100110.25;4970333;28;20254;-80
2023/10/14 09:10:48;;;;;;;7.73;1.57;;;;;;;13.84;95.45;100114.66;4966189;28;20268;-78
2023/10/14 09:13:20;;;;;;;4.27;1.93;;;;;;;13.98;96.24;100115.44;4977260;28;20323;-80
2023/10/14 09:15:49;;;;;;;3.73;1.53;;;;;;;14.13;90.06;100130.50;4975034;28;20314;-79
2023/10/14 09:18:32;;;;;;;5.87;1.80;;;;;;;14.25;89.42;100123.31;4976595;28;20205;-80
2023/10/14 09:21:05;;;;;;;3.27;1.63;;;;;;;14.35;87.70;100116.13;4977093;28;20287;-78
2023/10/14 09:23:34;;;;;;;4.60;1.60;;;;;;;14.44;83.78;100126.78;4976841;28;20264;-79
2023/10/14 09:26:02;;;;;;;3.97;1.50;;;;;;;14.63;84.55;100138.19;4971944;28;20307;-79
2023/10/14 09:28:34;;;;;;;4.87;2.37;;;;;;;14.73;83.40;100139.91;4976671;28;20686;-80
2023/10/14 09:31:08;;;;;;;5.27;1.67;;;;;;;14.89;82.92;100125.56;4976769;28;20281;-77
2023/10/14 09:33:44;;;;;;;4.57;1.80;;;;;;;14.87;75.64;100132.69;4976160;28;20213;-76
2023/10/14 09:36:18;;;;;;;4.00;1.70;;;;;;;14.89;75.88;100151.34;4973321;28;20255;-76
2023/10/14 09:38:48;;;;;;;5.80;1.67;;;;;;;14.79;74.02;100142.50;4969679;28;20666;-75
2023/10/14 09:41:15;;;;;;;4.43;1.57;;;;;;;14.71;72.37;100139.91;4976654;28;20213;-76
2023/10/14 09:43:51;;;;;;;3.53;1.37;;;;;;;14.84;70.21;100147.84;4971247;28;20212;-77
2023/10/14 09:46:20;;;;;;;5.57;1.60;;;;;;;14.92;70.85;100157.53;4976972;28;20224;-77
2023/10/14 09:48:47;;;;;;;4.13;1.83;;;;;;;14.94;68.27;100161.06;4969698;28;20623;-75
2023/10/14 09:51:16;;;;;;;3.00;1.40;;;;;;;14.89;68.32;100165.56;4976652;28;20691;-74
2023/10/14 09:53:46;;;;;;;5.83;1.73;;;;;;;15.02;69.36;100169.00;4975369;28;20268;-76
2023/10/14 09:56:12;;;;;;;6.03;1.60;;;;;;;15.13;69.16;100163.56;4977154;28;20222;-73
2023/10/14 09:58:43;;;;;;;5.47;1.40;;;;;;;15.16;66.52;100167.09;4976956;28;20205;-73
2023/10/14 10:01:12;;;;;;;8.10;1.60;;;;;;;15.40;62.81;100174.00;4973700;28;20638;-72
2023/10/14 10:03:44;;;;;;;5.67;1.70;;;;;;;15.31;60.58;100171.44;4976323;28;20296;-72
2023/10/14 10:06:36;;;;;;;7.33;1.57;;;;;;;15.22;60.33;100180.41;4976683;28;20718;-72
2023/10/14 10:09:24;;;;;;;3.37;1.10;;;;;;;15.21;59.61;100172.38;4971914;28;20204;-73
2023/10/14 10:11:55;;;;;;;6.07;1.60;;;;;;;15.22;58.85;100177.75;4969972;28;20731;-73
2023/10/14 10:14:25;;;;;;;2.87;1.10;;;;;;;15.12;58.86;100176.03;4977252;28;20537;-72
2023/10/14 10:16:52;;;;;;;3.90;1.30;;;;;;;15.18;60.89;100167.97;4976608;28;20308;-72
2023/10/14 10:19:24;;;;;;;3.47;1.37;;;;;;;15.26;59.26;100178.59;4971913;28;20292;-72
2023/10/14 10:22:14;;;;;;;2.97;1.20;;;;;;;15.39;59.77;100193.56;4968263;28;20285;-72
2023/10/14 10:24:44;;;;;;;3.40;1.20;;;;;;;15.49;60.66;100189.03;4972868;28;20281;-72
2023/10/14 10:27:10;;;;;;;3.53;0.90;;;;;;;15.64;59.11;100189.81;4969195;28;20225;-72
2023/10/14 10:29:43;;;;;;;2.93;1.07;;;;;;;15.77;58.24;100189.69;4972435;28;20556;-72
2023/10/14 10:32:16;;;;;;;4.37;1.40;;;;;;;15.95;58.92;100192.13;4973649;28;20209;-72
2023/10/14 10:35:05;;;;;;;1.90;1.00;;;;;;;16.35;57.95;100191.63;4973342;28;20198;-70
2023/10/14 10:37:50;;;;;;;6.20;1.40;;;;;;;16.38;58.43;100186.25;4971282;28;20684;-71
2023/10/14 10:40:25;;;;;;;1.63;1.00;;;;;;;16.31;59.65;100201.47;4972025;28;20205;-71
2023/10/14 10:43:06;;;;;;;5.13;1.37;;;;;;;15.53;59.83;100194.31;4971279;28;20288;-71
2023/10/14 10:45:34;;;;;;;5.20;1.83;;;;;;;15.11;61.56;100186.72;4971074;28;20608;-72
2023/10/14 10:48:04;;;;;;;4.43;1.40;;;;;;;15.03;61.24;100197.44;4973045;28;20261;-70
2023/10/14 10:50:38;;;;;;;1.80;1.00;;;;;;;15.02;57.53;100182.34;4972472;28;20209;-72
2023/10/14 10:53:07;;;;;;;2.83;1.10;;;;;;;15.36;57.78;100183.81;4970538;28;20292;-72
2023/10/14 10:55:46;;;;;;;2.40;1.00;;;;;;;15.43;56.31;100192.66;4971355;28;20236;-72
2023/10/14 10:58:14;;;;;;;1.80;1.00;;;;;;;15.59;56.95;100186.28;4972754;28;20281;-72
2023/10/14 11:00:42;;;;;;;3.33;0.90;;;;;;;15.79;55.64;100183.41;4971107;28;20660;-71
2023/10/14 11:03:14;;;;;;;5.50;1.23;;;;;;;15.90;54.43;100178.81;4973165;28;20231;-71
2023/10/14 11:05:46;;;;;;;3.03;0.90;;;;;;;16.06;54.01;100170.66;4972277;28;20228;-72
2023/10/14 11:08:16;;;;;;;2.80;0.80;;;;;;;16.19;50.51;100175.81;4972420;28;20215;-71
2023/10/14 11:10:44;;;;;;;1.83;0.70;;;;;;;16.21;49.89;100187.34;4966295;28;20233;-71
2023/10/14 11:13:12;;;;;;;3.20;0.80;;;;;;;16.03;50.39;100176.91;4972550;28;20633;-71
2023/10/14 11:15:40;;;;;;;3.10;0.90;;;;;;;16.17;51.95;100192.75;4972420;28;20228;-71
2023/10/14 11:18:10;;;;;;;3.07;0.80;;;;;;;15.89;52.01;100182.41;4971014;28;20810;-72
2023/10/14 11:20:49;;;;;;;2.77;1.17;;;;;;;16.10;52.61;100183.06;4972142;28;20351;-71
2023/10/14 11:23:17;;;;;;;4.23;1.17;;;;;;;15.96;52.82;100177.88;4972447;28;20232;-72
2023/10/14 11:25:47;;;;;;;2.17;0.93;;;;;;;15.99;53.25;100185.84;4969065;28;20248;-71
2023/10/14 11:28:14;;;;;;;4.07;0.87;;;;;;;15.90;54.08;100193.97;4968268;28;20197;-70
2023/10/14 11:30:43;;;;;;;2.23;0.80;;;;;;;16.08;54.17;100185.75;4971964;28;20205;-70
2023/10/14 11:33:12;;;;;;;4.53;1.57;;;;;;;16.37;53.15;100187.16;4972014;28;20272;-70
2023/10/14 11:35:39;;;;;;;3.80;1.17;;;;;;;16.54;52.89;100187.81;4968138;28;20312;-70
2023/10/14 11:38:08;;;;;;;4.93;0.97;;;;;;;16.11;51.80;100187.50;4971686;28;20290;-71
2023/10/14 11:40:40;;;;;;;2.83;0.90;;;;;;;15.96;53.32;100180.53;4971872;28;20278;-70
2023/10/14 11:43:11;;;;;;;4.40;1.00;;;;;;;16.02;52.00;100187.63;4971020;28;20461;-72
2023/10/14 11:45:43;;;;;;;3.03;0.90;;;;;;;16.36;52.13;100183.59;4969606;28;20233;-72
2023/10/14 11:48:27;;;;;;;3.27;0.93;;;;;;;16.56;51.31;100188.69;4971670;28;20210;-72
2023/10/14 11:51:02;;;;;;;2.93;1.27;;;;;;;17.01;50.66;100186.25;4971347;28;20206;-71
2023/10/14 11:53:31;;;;;;;2.47;1.20;;;;;;;17.18;50.64;100192.19;4969878;28;20577;-70
2023/10/14 11:56:03;;;;;;;2.80;0.93;;;;;;;17.37;49.28;100187.44;4965386;28;20217;-71
2023/10/14 11:58:32;;;;;;;2.50;0.90;;;;;;;17.32;47.91;100184.84;4971352;28;20212;-71
2023/10/14 12:00:59;;;;;;;3.70;0.93;;;;;;;17.14;48.38;100191.34;4964484;28;20261;-71
2023/10/14 12:03:26;;;;;;;1.73;0.90;;;;;;;17.39;49.71;100197.19;4971600;28;20292;-70
2023/10/14 12:05:57;;;;;;;5.17;0.90;;;;;;;16.85;48.57;100183.81;4971390;28;20231;-70